Time;durP1;ratioP1;P1;durP2;ratioP2;P2;SDS_P1;SDS_P2;PMS_P1;PMS_P2;Temp;Humidity;BMP_temperature;BMP_pressure;BME280_temperature;BME280_humidity;BME280_pressure;Samples;Min_cycle;Max_cycle;Signal;HPM_P1;HPM_P2
2022/12/05 00:01:26;;;;;;;33.93;19.60;;;2.50;1.00;;;;;;5046122;28;20270;-65
2022/12/05 00:03:56;;;;;;;36.47;21.30;;;2.50;1.00;;;;;;5043465;28;20224;-65
2022/12/05 00:06:24;;;;;;;35.57;19.43;;;2.50;1.00;;;;;;5044389;28;20690;-64
2022/12/05 00:08:51;;;;;;;36.33;20.00;;;2.50;1.00;;;;;;5019875;28;20291;-65
2022/12/05 00:11:22;;;;;;;34.37;21.03;;;2.50;1.00;;;;;;5038958;28;20255;-65
2022/12/05 00:13:51;;;;;;;29.80;19.50;;;2.50;1.00;;;;;;5038778;28;20282;-66
2022/12/05 00:16:20;;;;;;;34.00;20.50;;;2.40;1.00;;;;;;5044113;28;20219;-65
2022/12/05 00:18:49;;;;;;;32.70;18.83;;;2.40;1.00;;;;;;5043825;28;20261;-65
2022/12/05 00:21:24;;;;;;;41.27;20.27;;;2.40;1.00;;;;;;5043673;28;20191;-63
2022/12/05 00:23:53;;;;;;;29.10;18.77;;;2.40;1.00;;;;;;5034467;28;20191;-65
2022/12/05 00:26:20;;;;;;;35.53;20.47;;;2.40;1.00;;;;;;5039441;28;20338;-65
2022/12/05 00:28:48;;;;;;;35.27;20.73;;;2.50;1.00;;;;;;5041748;28;20230;-65
2022/12/05 00:31:17;;;;;;;39.50;20.97;;;2.40;1.00;;;;;;5040618;28;20200;-64
2022/12/05 00:33:45;;;;;;;31.80;20.07;;;2.40;1.00;;;;;;5041789;28;20200;-65
2022/12/05 00:36:21;;;;;;;39.20;24.17;;;2.40;1.00;;;;;;5026749;28;20826;-64
2022/12/05 00:38:48;;;;;;;32.77;20.70;;;2.40;1.00;;;;;;5057164;28;20196;-63
2022/12/05 00:41:19;;;;;;;31.27;20.23;;;2.40;1.00;;;;;;5042575;28;20210;-64
2022/12/05 00:43:46;;;;;;;42.30;23.93;;;2.40;1.00;;;;;;5041053;28;20213;-65
2022/12/05 00:46:16;;;;;;;29.10;19.23;;;2.40;1.00;;;;;;5043775;28;20667;-65
2022/12/05 00:48:44;;;;;;;32.83;20.73;;;2.40;1.00;;;;;;5049663;28;20280;-64
2022/12/05 00:51:18;;;;;;;33.80;20.50;;;2.40;1.00;;;;;;5044941;28;20199;-64
2022/12/05 00:53:45;;;;;;;32.40;19.50;;;2.40;1.00;;;;;;5042854;28;20678;-65
2022/12/05 00:56:21;;;;;;;36.13;20.77;;;2.40;1.00;;;;;;5057567;28;20867;-65
2022/12/05 00:58:49;;;;;;;32.87;20.70;;;2.40;1.00;;;;;;5036436;28;20218;-65
2022/12/05 01:01:22;;;;;;;34.63;20.37;;;2.50;1.00;;;;;;5059857;28;20282;-65
2022/12/05 01:03:53;;;;;;;35.83;20.10;;;2.40;1.00;;;;;;5041901;28;20318;-63
2022/12/05 01:06:21;;;;;;;33.40;20.13;;;2.40;1.00;;;;;;5037852;28;20820;-64
2022/12/05 01:08:48;;;;;;;33.67;20.60;;;2.40;1.00;;;;;;5043705;28;20204;-64
2022/12/05 01:11:17;;;;;;;36.83;21.50;;;2.40;1.00;;;;;;5044181;28;20192;-64
2022/12/05 01:13:45;;;;;;;32.93;19.23;;;2.40;1.00;;;;;;5044125;28;20248;-64
2022/12/05 01:16:28;;;;;;;31.77;19.73;;;2.40;1.00;;;;;;5044366;28;20575;-64
2022/12/05 01:19:02;;;;;;;32.93;20.93;;;2.40;1.00;;;;;;5045181;28;20215;-65
2022/12/05 01:21:29;;;;;;;34.47;19.47;;;2.40;1.00;;;;;;5044161;28;20183;-64
2022/12/05 01:23:56;;;;;;;32.70;19.50;;;2.40;1.00;;;;;;5043857;28;20278;-63
2022/12/05 01:26:23;;;;;;;31.87;20.00;;;2.40;1.00;;;;;;5036018;28;20404;-66
2022/12/05 01:28:51;;;;;;;38.33;21.30;;;2.40;1.00;;;;;;5043111;28;20188;-64
2022/12/05 01:31:33;;;;;;;36.83;20.60;;;2.40;1.00;;;;;;5043079;28;20191;-65
2022/12/05 01:34:02;;;;;;;39.57;20.23;;;2.40;1.00;;;;;;5044813;28;20303;-63
2022/12/05 01:36:30;;;;;;;32.00;19.50;;;2.40;1.00;;;;;;5043645;28;20222;-65
2022/12/05 01:38:57;;;;;;;34.47;20.33;;;2.40;1.00;;;;;;5043701;28;20198;-64
2022/12/05 01:41:33;;;;;;;35.77;21.10;;;2.40;1.00;;;;;;5034226;28;20197;-65
2022/12/05 01:44:10;;;;;;;36.20;20.90;;;2.40;1.00;;;;;;5058010;28;20205;-65
2022/12/05 01:46:57;;;;;;;34.03;20.87;;;2.40;1.00;;;;;;5042927;28;20197;-63
2022/12/05 01:49:27;;;;;;;35.87;21.13;;;2.40;1.00;;;;;;5035079;28;20325;-63
2022/12/05 01:51:58;;;;;;;37.70;20.93;;;2.40;1.00;;;;;;5043476;28;20291;-64
2022/12/05 01:54:25;;;;;;;30.00;19.43;;;2.40;1.00;;;;;;5043747;28;20225;-65
2022/12/05 01:56:57;;;;;;;33.83;21.13;;;2.40;1.00;;;;;;5057336;28;20696;-65
2022/12/05 01:59:25;;;;;;;37.20;20.60;;;2.40;1.00;;;;;;5044156;28;20231;-63
2022/12/05 02:01:53;;;;;;;31.47;18.40;;;2.30;1.00;;;;;;5040840;28;20288;-65
2022/12/05 02:07:09;;;;;;;36.63;20.30;;;2.30;1.00;;;;;;5054122;28;20253;-63
2022/12/05 02:09:36;;;;;;;36.13;21.60;;;2.30;1.00;;;;;;5037907;28;20666;-64
2022/12/05 02:12:03;;;;;;;34.20;20.93;;;2.30;1.00;;;;;;5053402;28;20631;-64
2022/12/05 02:14:57;;;;;;;31.73;21.17;;;2.30;1.00;;;;;;5039276;28;20282;-63
2022/12/05 02:17:39;;;;;;;40.90;21.03;;;2.30;1.00;;;;;;5060532;28;20229;-63
2022/12/05 02:20:18;;;;;;;40.37;22.10;;;2.30;1.00;;;;;;5023268;28;20195;-62
2022/12/05 02:23:23;;;;;;;38.83;21.30;;;2.30;1.00;;;;;;5042172;28;20199;-63
2022/12/05 02:25:59;;;;;;;37.33;20.63;;;2.30;1.00;;;;;;5058533;28;20301;-62
2022/12/05 02:28:41;;;;;;;38.30;21.87;;;2.30;3.60;;;;;;5058928;28;20203;-62
2022/12/05 02:31:20;;;;;;;37.47;22.33;;;2.30;9.10;;;;;;5041524;28;20191;-62
2022/12/05 02:33:55;;;;;;;37.13;22.60;;;2.30;9.10;;;;;;5059204;28;20219;-63
2022/12/05 02:36:29;;;;;;;38.37;21.93;;;2.30;14.40;;;;;;5057245;28;20417;-64
2022/12/05 02:39:05;;;;;;;36.23;21.33;;;2.40;20.00;;;;;;5055353;28;20531;-64
2022/12/05 02:42:11;;;;;;;35.57;21.20;;;2.30;24.20;;;;;;5041037;28;20749;-64
2022/12/05 02:44:49;;;;;;;32.33;20.83;;;2.30;28.80;;;;;;5052700;28;20202;-63
2022/12/05 02:47:20;;;;;;;38.03;22.17;;;2.30;35.00;;;;;;5054664;28;20520;-64
2022/12/05 02:49:50;;;;;;;37.90;21.17;;;2.40;47.40;;;;;;5055532;28;20611;-64
2022/12/05 02:52:18;;;;;;;38.20;21.40;;;2.40;52.10;;;;;;5037471;28;20202;-64
2022/12/05 02:54:48;;;;;;;39.77;22.87;;;2.40;53.50;;;;;;5024307;28;20204;-64
2022/12/05 02:57:16;;;;;;;39.93;22.23;;;2.40;60.00;;;;;;5035838;28;20219;-66
2022/12/05 02:59:43;;;;;;;34.90;21.40;;;2.40;55.60;;;;;;5053922;28;20191;-63
2022/12/05 03:02:27;;;;;;;39.53;23.00;;;2.40;57.50;;;;;;5041779;28;20265;-63
2022/12/05 03:04:57;;;;;;;37.93;22.53;;;2.40;57.40;;;;;;5053451;28;20801;-63
2022/12/05 03:07:27;;;;;;;37.63;21.33;;;2.40;56.40;;;;;;5040085;28;20689;-63
2022/12/05 03:09:59;;;;;;;36.93;21.70;;;2.40;51.30;;;;;;5052841;28;20214;-63
2022/12/05 03:12:34;;;;;;;36.20;20.80;;;2.40;46.10;;;;;;5043473;28;20205;-61
2022/12/05 03:15:13;;;;;;;35.63;20.67;;;2.40;50.50;;;;;;5055794;28;20756;-62
2022/12/05 03:17:54;;;;;;;38.83;21.97;;;2.40;53.30;;;;;;5057737;28;20190;-62
2022/12/05 03:20:33;;;;;;;36.13;21.17;;;2.40;49.30;;;;;;5054262;28;20206;-61
2022/12/05 03:23:12;;;;;;;37.53;21.63;;;2.40;45.30;;;;;;5044864;28;20215;-62
2022/12/05 03:25:56;;;;;;;34.63;19.97;;;2.40;41.10;;;;;;5040297;28;20198;-61
2022/12/05 03:28:36;;;;;;;32.13;19.47;;;2.40;48.10;;;;;;5054668;28;20686;-62
2022/12/05 03:31:10;;;;;;;35.83;19.93;;;2.40;60.90;;;;;;5057619;28;20191;-61
2022/12/05 03:33:44;;;;;;;32.23;20.20;;;2.40;42.20;;;;;;5053213;28;20190;-60
2022/12/05 03:36:13;;;;;;;34.73;21.20;;;2.40;44.90;;;;;;5054348;28;20203;-62
2022/12/05 03:39:04;;;;;;;34.30;21.50;;;2.40;74.60;;;;;;5055901;28;20183;-61
2022/12/05 03:42:04;;;;;;;35.70;20.47;;;2.40;65.80;;;;;;5056442;28;20236;-61
2022/12/05 03:45:00;;;;;;;34.33;20.30;;;2.40;65.00;;;;;;5051663;28;20681;-62
2022/12/05 03:47:50;;;;;;;31.43;20.60;;;2.40;72.80;;;;;;5055574;28;20222;-61
2022/12/05 03:50:26;;;;;;;35.20;20.17;;;2.40;77.30;;;;;;5050621;28;20231;-61
2022/12/05 03:53:02;;;;;;;34.93;20.33;;;2.40;83.90;;;;;;5041843;28;20279;-62
2022/12/05 03:56:04;;;;;;;36.23;20.60;;;2.40;83.30;;;;;;5051432;28;20308;-63
2022/12/05 03:58:54;;;;;;;37.03;19.90;;;2.40;88.30;;;;;;5055268;28;20300;-62
2022/12/05 04:01:24;;;;;;;32.87;20.60;;;2.40;93.80;;;;;;5054821;28;20296;-63
2022/12/05 04:03:59;;;;;;;33.73;20.43;;;2.40;92.70;;;;;;5058956;28;20294;-64
2022/12/05 04:06:34;;;;;;;34.23;19.90;;;2.40;96.40;;;;;;5037097;28;20227;-65
2022/12/05 04:09:18;;;;;;;34.67;20.27;;;2.40;99.90;;;;;;5037999;28;20267;-63
2022/12/05 04:11:50;;;;;;;37.53;22.00;;;2.40;99.90;;;;;;5055126;28;20196;-63
2022/12/05 04:14:39;;;;;;;36.53;21.27;;;2.40;99.90;;;;;;5020829;28;20199;-63
2022/12/05 04:17:30;;;;;;;35.57;20.93;;;2.40;99.90;;;;;;5045271;28;20219;-63
2022/12/05 04:22:49;;;;;;;32.80;20.80;;;2.40;99.90;;;;;;5057141;28;20252;-63
2022/12/05 04:25:32;;;;;;;36.27;21.60;;;2.40;99.90;;;;;;5051734;28;20199;-64
2022/12/05 04:28:23;;;;;;;35.40;21.07;;;2.40;99.90;;;;;;5054573;28;20195;-64
2022/12/05 04:31:16;;;;;;;35.47;21.10;;;2.40;99.90;;;;;;5056590;28;20278;-64
2022/12/05 04:33:55;;;;;;;35.03;20.63;;;2.40;99.90;;;;;;5054453;28;20211;-63
2022/12/05 04:36:32;;;;;;;33.77;19.43;;;2.50;99.90;;;;;;5037631;28;20870;-64
2022/12/05 04:39:04;;;;;;;33.33;21.00;;;2.40;99.90;;;;;;5043981;28;20201;-63
2022/12/05 04:41:47;;;;;;;32.53;18.80;;;2.40;99.90;;;;;;5039216;28;20206;-64
2022/12/05 04:44:18;;;;;;;31.23;20.17;;;2.40;91.70;;;;;;5056603;28;20287;-64
2022/12/05 04:46:48;;;;;;;32.93;20.60;;;2.40;97.80;;;;;;5055008;28;20686;-64
2022/12/05 04:49:19;;;;;;;30.57;18.77;;;2.30;96.30;;;;;;5055472;28;20261;-63
2022/12/05 04:51:49;;;;;;;37.83;18.63;;;2.30;98.70;;;;;;5057422;28;20298;-63
2022/12/05 04:54:22;;;;;;;31.57;19.83;;;2.30;99.90;;;;;;5039915;28;20522;-63
2022/12/05 04:56:53;;;;;;;30.30;20.00;;;2.30;99.90;;;;;;5053498;28;20297;-63
2022/12/05 04:59:27;;;;;;;35.53;20.10;;;2.20;99.90;;;;;;5055687;28;20614;-64
2022/12/05 05:01:59;;;;;;;34.47;18.87;;;2.20;99.90;;;;;;5044639;28;20199;-64
2022/12/05 05:04:47;;;;;;;30.80;19.97;;;2.30;99.90;;;;;;5054665;28;20287;-64
2022/12/05 05:07:14;;;;;;;30.43;19.27;;;2.30;99.90;;;;;;5053314;28;20875;-64
2022/12/05 05:09:43;;;;;;;33.23;20.07;;;2.20;99.90;;;;;;5053147;28;20195;-63
2022/12/05 05:12:10;;;;;;;33.60;20.27;;;2.20;99.90;;;;;;5055933;28;20286;-64
2022/12/05 05:14:44;;;;;;;29.90;19.53;;;2.20;99.90;;;;;;5052984;28;20198;-64
2022/12/05 05:17:11;;;;;;;38.30;20.87;;;2.20;99.90;;;;;;5054659;28;20203;-63
2022/12/05 05:19:38;;;;;;;35.93;20.77;;;2.20;99.90;;;;;;5055144;28;20179;-64
2022/12/05 05:22:05;;;;;;;35.37;20.03;;;2.20;99.90;;;;;;5043451;28;20658;-64
2022/12/05 05:24:32;;;;;;;36.63;21.73;;;2.20;99.90;;;;;;5043133;28;20766;-64
2022/12/05 05:26:59;;;;;;;39.20;21.17;;;2.20;99.90;;;;;;5040213;28;20191;-64
2022/12/05 05:29:26;;;;;;;31.00;19.67;;;2.20;99.90;;;;;;5053556;28;20249;-63
2022/12/05 05:31:53;;;;;;;37.73;21.63;;;2.30;99.90;;;;;;5055722;28;20275;-63
2022/12/05 05:34:20;;;;;;;36.30;21.07;;;2.30;99.90;;;;;;5037059;28;20658;-64
2022/12/05 05:36:50;;;;;;;34.23;20.87;;;2.30;99.90;;;;;;5038994;28;20218;-67
2022/12/05 05:39:17;;;;;;;38.97;22.30;;;2.30;99.90;;;;;;5051859;28;20203;-63
2022/12/05 05:41:44;;;;;;;36.87;21.53;;;2.30;99.90;;;;;;5037918;28;20225;-63
2022/12/05 05:44:11;;;;;;;36.73;20.53;;;2.30;99.90;;;;;;5032870;28;20282;-62
2022/12/05 05:46:38;;;;;;;31.87;20.63;;;2.30;99.90;;;;;;5032146;28;20229;-62
2022/12/05 05:49:05;;;;;;;35.17;21.07;;;2.20;99.90;;;;;;5036983;28;20252;-63
2022/12/05 05:51:33;;;;;;;32.23;21.07;;;2.10;99.90;;;;;;5050698;28;20199;-63
2022/12/05 05:54:00;;;;;;;35.00;20.60;;;2.00;99.90;;;;;;5055015;28;20619;-63
2022/12/05 05:56:28;;;;;;;39.47;21.40;;;1.90;99.90;;;;;;5034871;28;20219;-63
2022/12/05 05:58:57;;;;;;;31.90;19.60;;;1.80;99.90;;;;;;5041577;28;20291;-63
2022/12/05 06:01:27;;;;;;;35.20;20.60;;;1.70;99.90;;;;;;5053957;28;20871;-63
2022/12/05 06:03:54;;;;;;;33.73;19.20;;;1.70;99.90;;;;;;5037354;28;20202;-65
2022/12/05 06:06:22;;;;;;;35.77;20.60;;;1.60;99.90;;;;;;5054328;28;20721;-64
2022/12/05 06:08:49;;;;;;;32.20;20.03;;;1.60;99.90;;;;;;5042609;28;20214;-65
2022/12/05 06:11:19;;;;;;;33.10;20.57;;;1.60;99.90;;;;;;5045206;28;20721;-64
2022/12/05 06:13:56;;;;;;;31.53;20.30;;;1.60;99.90;;;;;;5056363;28;20218;-64
2022/12/05 06:16:23;;;;;;;32.87;20.37;;;1.60;99.90;;;;;;5055265;28;20211;-64
2022/12/05 06:18:52;;;;;;;30.70;19.97;;;1.60;99.90;;;;;;5057547;28;20188;-64
2022/12/05 06:21:20;;;;;;;37.60;19.97;;;1.60;99.90;;;;;;5053337;28;20183;-64
2022/12/05 06:23:47;;;;;;;30.13;19.67;;;1.60;1.00;;;;;;5057667;28;20631;-64
2022/12/05 06:26:19;;;;;;;28.97;18.50;;;1.60;1.00;;;;;;5048384;28;20208;-64
2022/12/05 06:28:46;;;;;;;30.93;19.57;;;1.70;1.00;;;;;;5054709;28;20826;-64
2022/12/05 06:31:19;;;;;;;38.17;23.17;;;1.60;1.00;;;;;;5047138;28;20194;-64
2022/12/05 06:33:47;;;;;;;35.03;22.73;;;1.60;1.00;;;;;;5046943;28;20680;-64
2022/12/05 06:36:17;;;;;;;36.50;23.47;;;1.70;1.00;;;;;;5048668;28;20207;-63
2022/12/05 06:38:44;;;;;;;35.13;23.37;;;1.70;1.00;;;;;;5040540;28;20290;-64
2022/12/05 06:41:15;;;;;;;36.13;23.40;;;1.70;1.00;;;;;;5056107;28;20741;-64
2022/12/05 06:43:42;;;;;;;34.03;22.13;;;1.70;1.00;;;;;;5057553;28;20219;-64
2022/12/05 06:46:13;;;;;;;32.40;21.30;;;1.70;1.00;;;;;;5047307;28;20702;-64
2022/12/05 06:48:40;;;;;;;32.67;21.70;;;1.70;1.00;;;;;;5045607;28;20221;-63
2022/12/05 06:51:09;;;;;;;41.80;24.20;;;1.60;1.00;;;;;;5045003;28;20211;-64
2022/12/05 06:53:37;;;;;;;41.90;24.50;;;1.60;1.00;;;;;;5057484;28;20195;-63
2022/12/05 06:56:15;;;;;;;47.87;28.07;;;1.60;1.00;;;;;;5040132;28;20290;-64
2022/12/05 06:58:44;;;;;;;51.27;29.33;;;1.60;1.00;;;;;;5040026;28;20388;-64
2022/12/05 07:01:37;;;;;;;49.90;28.83;;;1.60;1.00;;;;;;5038921;28;20609;-65
2022/12/05 07:04:24;;;;;;;44.80;25.87;;;1.60;1.00;;;;;;5053961;28;20523;-63
2022/12/05 07:06:53;;;;;;;44.77;25.00;;;1.60;1.00;;;;;;5039618;28;20227;-64
2022/12/05 07:09:44;;;;;;;38.77;23.73;;;1.70;1.00;;;;;;5055506;28;20191;-64
2022/12/05 07:12:14;;;;;;;38.77;21.97;;;1.60;1.00;;;;;;5055755;28;20187;-63
2022/12/05 07:14:42;;;;;;;37.70;23.00;;;1.60;1.00;;;;;;5042701;28;20527;-64
2022/12/05 07:17:18;;;;;;;40.17;23.60;;;1.60;5.10;;;;;;5039635;28;20211;-63
2022/12/05 07:19:50;;;;;;;37.87;21.97;;;1.50;21.60;;;;;;5038009;28;20273;-63
2022/12/05 07:22:19;;;;;;;33.87;21.13;;;1.40;1.00;;;;;;5039652;28;20191;-63
2022/12/05 07:24:46;;;;;;;30.37;19.40;;;1.40;29.90;;;;;;5034914;28;20195;-64
2022/12/05 07:27:14;;;;;;;33.13;19.93;;;1.30;81.80;;;;;;5039572;28;20212;-64
2022/12/05 07:29:41;;;;;;;28.10;18.97;;;1.40;99.90;;;;;;5050636;28;20203;-63
2022/12/05 07:32:08;;;;;;;34.47;18.60;;;1.50;99.90;;;;;;5023483;28;20249;-64
2022/12/05 07:34:37;;;;;;;27.90;19.17;;;1.50;99.90;;;;;;5036976;28;20191;-64
2022/12/05 07:37:04;;;;;;;28.47;18.77;;;1.60;99.90;;;;;;5056825;28;20207;-64
2022/12/05 07:39:31;;;;;;;29.23;18.40;;;1.50;99.90;;;;;;5055656;28;20449;-64
2022/12/05 07:41:58;;;;;;;26.70;17.60;;;1.60;99.90;;;;;;5050412;28;20206;-64
2022/12/05 07:44:25;;;;;;;29.90;18.87;;;1.60;99.90;;;;;;5051484;28;20283;-63
2022/12/05 07:46:52;;;;;;;30.10;18.47;;;1.60;99.90;;;;;;5052303;28;20214;-63
2022/12/05 07:49:19;;;;;;;26.27;17.40;;;1.60;99.90;;;;;;5040815;28;20321;-63
2022/12/05 07:51:46;;;;;;;28.03;17.80;;;1.60;99.90;;;;;;5054513;28;20674;-63
2022/12/05 07:54:13;;;;;;;28.83;19.00;;;1.60;99.90;;;;;;5054891;28;20185;-63
2022/12/05 07:56:40;;;;;;;25.33;18.03;;;1.70;99.90;;;;;;5052784;28;20687;-63
2022/12/05 07:59:13;;;;;;;29.40;18.97;;;1.70;99.90;;;;;;5058006;28;20768;-63
2022/12/05 08:01:40;;;;;;;28.87;18.13;;;1.70;99.90;;;;;;5033573;28;20285;-63
2022/12/05 08:04:07;;;;;;;29.10;18.50;;;1.70;1.00;;;;;;5036732;28;20706;-64
2022/12/05 08:06:40;;;;;;;26.20;17.70;;;1.70;1.00;;;;;;5041204;28;20235;-63
2022/12/05 08:09:07;;;;;;;28.60;18.50;;;1.80;1.00;;;;;;5054448;28;20192;-63
2022/12/05 08:11:35;;;;;;;29.60;19.07;;;1.70;1.00;;;;;;5035785;28;20549;-63
2022/12/05 08:14:04;;;;;;;48.47;28.57;;;1.80;1.00;;;;;;5038641;28;20202;-62
2022/12/05 08:16:32;;;;;;;35.23;24.67;;;1.80;1.00;;;;;;5054134;28;20195;-63
2022/12/05 08:19:01;;;;;;;33.43;21.73;;;1.80;1.00;;;;;;5052230;28;20282;-62
2022/12/05 08:21:29;;;;;;;28.00;18.47;;;1.80;1.00;;;;;;5055029;28;20285;-62
2022/12/05 08:23:56;;;;;;;32.17;19.03;;;1.90;1.00;;;;;;5045394;28;20202;-63
2022/12/05 08:26:29;;;;;;;31.47;20.67;;;1.90;1.00;;;;;;5046325;28;20701;-63
2022/12/05 08:28:57;;;;;;;28.10;20.60;;;1.90;1.00;;;;;;5039009;28;20183;-63
2022/12/05 08:31:26;;;;;;;31.30;19.63;;;1.90;1.00;;;;;;5054316;28;20294;-63
2022/12/05 08:33:58;;;;;;;28.23;20.13;;;1.80;99.90;;;;;;5052750;28;20190;-63
2022/12/05 08:36:27;;;;;;;32.27;20.23;;;1.90;99.90;;;;;;5054957;28;20930;-63
2022/12/05 08:38:56;;;;;;;27.63;18.73;;;1.90;99.90;;;;;;5035402;28;20656;-62
2022/12/05 08:41:27;;;;;;;28.30;17.73;;;1.90;99.90;;;;;;5054216;28;20201;-63
2022/12/05 08:44:04;;;;;;;26.17;18.60;;;1.80;99.90;;;;;;5022040;28;20286;-63
2022/12/05 08:46:33;;;;;;;31.20;20.43;;;1.70;7.30;;;;;;5051937;28;20278;-62
2022/12/05 08:49:00;;;;;;;32.00;21.03;;;1.60;1.00;;;;;;5015728;28;20333;-63
2022/12/05 08:51:27;;;;;;;32.20;20.10;;;1.70;1.00;;;;;;5055697;28;20195;-63
2022/12/05 08:53:55;;;;;;;33.87;20.00;;;1.80;62.60;;;;;;5046680;28;20194;-63
2022/12/05 08:56:22;;;;;;;31.03;18.40;;;1.80;18.60;;;;;;5032905;28;20248;-63
2022/12/05 08:58:53;;;;;;;29.87;19.60;;;1.80;1.00;;;;;;5052750;28;20213;-63
2022/12/05 09:01:32;;;;;;;28.03;19.07;;;1.70;1.00;;;;;;5041614;28;20720;-62
2022/12/05 09:04:00;;;;;;;34.07;22.70;;;1.60;1.00;;;;;;5055870;28;20315;-62
2022/12/05 09:06:28;;;;;;;31.77;21.53;;;1.60;1.00;;;;;;5056232;28;20239;-62
2022/12/05 09:08:58;;;;;;;33.20;21.50;;;1.70;1.00;;;;;;5054889;28;20183;-62
2022/12/05 09:11:28;;;;;;;33.00;22.13;;;1.70;1.00;;;;;;5055840;28;20757;-62
2022/12/05 09:13:57;;;;;;;28.50;19.90;;;1.70;1.00;;;;;;5053113;28;20194;-63
2022/12/05 09:16:30;;;;;;;29.57;20.07;;;1.70;1.00;;;;;;5024479;28;20203;-62
2022/12/05 09:19:10;;;;;;;29.97;19.57;;;1.80;1.00;;;;;;5052096;28;20230;-63
2022/12/05 09:21:37;;;;;;;29.70;20.13;;;1.80;1.00;;;;;;5039636;28;20207;-62
2022/12/05 09:24:04;;;;;;;29.90;20.67;;;1.80;9.00;;;;;;5052061;28;20261;-62
2022/12/05 09:26:31;;;;;;;32.73;20.10;;;1.90;33.00;;;;;;5049935;28;20278;-62
2022/12/05 09:28:58;;;;;;;27.77;18.73;;;1.90;29.00;;;;;;5050237;28;20188;-62
2022/12/05 09:31:26;;;;;;;31.20;19.70;;;1.90;96.10;;;;;;5040274;28;20321;-66
2022/12/05 09:33:53;;;;;;;35.87;21.90;;;2.00;59.10;;;;;;5038743;28;20214;-62
2022/12/05 09:36:23;;;;;;;28.03;18.70;;;1.90;36.30;;;;;;5056629;28;20197;-65
2022/12/05 09:38:51;;;;;;;32.20;21.67;;;1.90;57.60;;;;;;5039188;28;20219;-62
2022/12/05 09:44:26;;;;;;;62.00;41.47;;;1.90;45.60;;;;;;5041941;28;20211;-63
2022/12/05 09:47:03;;;;;;;44.50;31.00;;;1.90;81.40;;;;;;5057383;28;20679;-63
2022/12/05 09:49:32;;;;;;;39.43;25.77;;;1.90;99.90;;;;;;5056897;28;20286;-63
2022/12/05 09:51:59;;;;;;;29.00;21.10;;;1.90;99.90;;;;;;5056335;28;20201;-62
2022/12/05 09:54:27;;;;;;;26.40;17.93;;;1.80;59.90;;;;;;5053737;28;20207;-63
2022/12/05 09:56:54;;;;;;;24.40;16.80;;;1.80;90.60;;;;;;5055165;28;20658;-63
2022/12/05 09:59:21;;;;;;;25.87;18.30;;;1.90;97.10;;;;;;5054660;28;20699;-63
2022/12/05 10:02:23;;;;;;;30.07;18.67;;;1.90;42.40;;;;;;5058588;28;20569;-64
2022/12/05 10:04:56;;;;;;;28.70;18.67;;;1.90;99.90;;;;;;5049545;28;20225;-62
2022/12/05 10:07:50;;;;;;;28.77;21.17;;;2.00;99.90;;;;;;5039584;28;20201;-62
2022/12/05 10:10:37;;;;;;;26.93;20.97;;;2.10;99.90;;;;;;5050034;28;20195;-63
2022/12/05 10:13:26;;;;;;;51.67;35.43;;;2.10;99.90;;;;;;5048104;28;20698;-62
2022/12/05 10:16:06;;;;;;;29.30;22.23;;;2.30;27.40;;;;;;5033329;28;21608;-62
2022/12/05 10:18:45;;;;;;;27.80;18.83;;;2.30;1.00;;;;;;5054337;28;20199;-63
2022/12/05 10:21:16;;;;;;;24.30;16.70;;;2.40;1.00;;;;;;5053318;28;20183;-63
2022/12/05 10:23:55;;;;;;;23.73;17.60;;;2.40;1.00;;;;;;5051801;28;20877;-63
2022/12/05 10:26:37;;;;;;;22.67;17.70;;;2.50;1.00;;;;;;5057457;28;20192;-63
2022/12/05 10:29:10;;;;;;;23.77;17.37;;;2.60;1.00;;;;;;5033754;28;20590;-63
2022/12/05 10:31:39;;;;;;;22.27;15.63;;;2.70;1.00;;;;;;5055483;28;20214;-63
2022/12/05 10:34:12;;;;;;;20.77;14.90;;;2.70;1.00;;;;;;5038941;28;20194;-63
2022/12/05 10:36:48;;;;;;;21.87;15.33;;;2.60;1.00;;;;;;5037904;28;20295;-69
2022/12/05 10:39:15;;;;;;;22.20;17.07;;;2.60;1.00;;;;;;5040730;28;20600;-63
2022/12/05 10:41:42;;;;;;;26.00;20.67;;;2.50;1.00;;;;;;5053345;28;20206;-63
2022/12/05 10:44:09;;;;;;;26.67;20.80;;;2.50;1.00;;;;;;5041372;28;20371;-63
2022/12/05 10:46:36;;;;;;;23.97;17.50;;;2.60;1.00;;;;;;5053167;28;20188;-63
2022/12/05 10:49:11;;;;;;;18.90;13.17;;;2.50;1.00;;;;;;5051199;28;20210;-63
2022/12/05 10:51:39;;;;;;;23.97;17.30;;;2.60;1.00;;;;;;5053974;28;20199;-63
2022/12/05 10:54:39;;;;;;;19.10;14.93;;;2.50;1.00;;;;;;5040461;28;20234;-65
2022/12/05 10:57:28;;;;;;;20.53;15.17;;;2.50;1.00;;;;;;5038457;28;20290;-63
2022/12/05 10:59:57;;;;;;;23.30;15.50;;;2.50;1.00;;;;;;5052502;28;20187;-62
2022/12/05 11:02:30;;;;;;;20.53;15.37;;;2.50;1.00;;;;;;5056091;28;20187;-63
2022/12/05 11:04:57;;;;;;;21.40;15.53;;;2.50;1.00;;;;;;5039759;28;20273;-63
2022/12/05 11:07:44;;;;;;;23.90;16.40;;;2.50;1.00;;;;;;5056727;28;20240;-63
2022/12/05 11:10:36;;;;;;;21.53;16.13;;;2.50;1.00;;;;;;5043438;28;20188;-63
2022/12/05 11:13:24;;;;;;;21.23;16.57;;;2.40;78.50;;;;;;5058629;28;20733;-63
2022/12/05 11:15:51;;;;;;;27.63;21.73;;;2.40;99.90;;;;;;5038304;28;20742;-63
2022/12/05 11:18:28;;;;;;;23.10;18.30;;;2.40;99.90;;;;;;5056422;28;20243;-63
2022/12/05 11:21:07;;;;;;;23.63;16.67;;;2.30;99.90;;;;;;5056815;28;20277;-63
2022/12/05 11:23:34;;;;;;;21.03;15.37;;;2.30;99.90;;;;;;5039266;28;20192;-63
2022/12/05 11:26:02;;;;;;;20.60;15.00;;;2.30;99.90;;;;;;5038413;28;20195;-63
2022/12/05 11:28:33;;;;;;;20.77;15.23;;;2.20;99.90;;;;;;5055165;28;20946;-63
2022/12/05 11:31:28;;;;;;;21.23;15.53;;;2.20;99.90;;;;;;5034745;28;20206;-63
2022/12/05 11:34:21;;;;;;;26.20;16.27;;;2.10;43.00;;;;;;5037718;28;20639;-63
2022/12/05 11:37:08;;;;;;;27.33;19.10;;;2.20;88.00;;;;;;5026237;28;20286;-63
2022/12/05 11:39:35;;;;;;;26.50;18.67;;;2.30;17.60;;;;;;5056592;28;20682;-63
2022/12/05 11:42:18;;;;;;;28.77;19.53;;;2.30;1.00;;;;;;5053685;28;20194;-63
2022/12/05 11:44:45;;;;;;;26.80;19.00;;;2.20;1.00;;;;;;5030196;28;20202;-64
2022/12/05 11:47:38;;;;;;;28.43;20.63;;;2.10;1.00;;;;;;5030804;28;20195;-63
2022/12/05 11:50:30;;;;;;;25.00;19.67;;;2.20;99.90;;;;;;5053814;28;20205;-64
2022/12/05 11:53:10;;;;;;;25.37;19.30;;;2.20;99.90;;;;;;5044979;28;20278;-63
2022/12/05 11:55:59;;;;;;;24.57;19.43;;;2.20;99.90;;;;;;5034198;28;20881;-64
2022/12/05 11:58:47;;;;;;;36.17;28.40;;;2.30;99.90;;;;;;5055299;28;20215;-63
2022/12/05 12:01:38;;;;;;;25.13;18.70;;;2.30;99.90;;;;;;5056378;28;20326;-63
2022/12/05 12:04:34;;;;;;;25.53;18.17;;;2.40;99.90;;;;;;5041898;28;20223;-62
2022/12/05 12:07:12;;;;;;;24.60;18.07;;;2.30;3.80;;;;;;5056247;28;20732;-63
2022/12/05 12:09:42;;;;;;;20.57;16.53;;;2.40;99.90;;;;;;5057290;28;20700;-64
2022/12/05 12:12:25;;;;;;;18.97;15.93;;;2.40;77.10;;;;;;5059881;28;20253;-63
2022/12/05 12:15:15;;;;;;;20.03;16.50;;;2.40;17.40;;;;;;5059769;28;20549;-65
2022/12/05 12:18:01;;;;;;;20.43;15.97;;;2.40;1.00;;;;;;5057478;28;20662;-63
2022/12/05 12:20:41;;;;;;;52.17;46.53;;;2.30;99.90;;;;;;5054165;28;20214;-67
2022/12/05 12:23:22;;;;;;;51.07;42.60;;;2.30;1.00;;;;;;5057189;28;20264;-64
2022/12/05 12:26:10;;;;;;;21.37;17.23;;;2.30;99.90;;;;;;5039845;28;20200;-63
2022/12/05 12:28:56;;;;;;;19.13;14.83;;;2.40;1.00;;;;;;5043580;28;20277;-63
2022/12/05 12:31:50;;;;;;;17.57;13.77;;;2.30;1.00;;;;;;5053143;28;20206;-63
2022/12/05 12:34:30;;;;;;;17.67;14.73;;;2.20;1.00;;;;;;5036215;28;20187;-63
2022/12/05 12:37:23;;;;;;;21.33;15.73;;;2.20;1.00;;;;;;5056100;28;21034;-63
2022/12/05 12:39:55;;;;;;;17.57;14.90;;;2.20;1.00;;;;;;5045226;28;20227;-63
2022/12/05 12:42:30;;;;;;;20.80;16.73;;;2.30;1.00;;;;;;5055555;28;20738;-63
2022/12/05 12:45:25;;;;;;;18.80;14.60;;;2.20;1.00;;;;;;5041422;28;20213;-64
2022/12/05 12:48:10;;;;;;;21.83;15.63;;;2.20;1.00;;;;;;5050353;28;20290;-63
2022/12/05 12:50:42;;;;;;;22.53;16.10;;;2.20;1.00;;;;;;5038768;28;20202;-63
2022/12/05 12:53:24;;;;;;;24.17;17.20;;;2.10;1.00;;;;;;5035970;28;20214;-63
2022/12/05 12:56:18;;;;;;;45.40;22.93;;;2.10;1.00;;;;;;5050710;28;20197;-63
2022/12/05 12:59:04;;;;;;;25.97;17.70;;;2.10;1.00;;;;;;5045428;28;20228;-63
2022/12/05 13:01:59;;;;;;;23.00;16.67;;;2.00;1.00;;;;;;5038328;28;20541;-63
2022/12/05 13:04:39;;;;;;;22.77;15.77;;;2.00;1.00;;;;;;5053025;28;20226;-63
2022/12/05 13:07:22;;;;;;;24.10;18.13;;;1.80;99.90;;;;;;5051299;28;20304;-63
2022/12/05 13:10:00;;;;;;;20.13;15.57;;;1.60;99.90;;;;;;5048667;28;21168;-63
2022/12/05 13:12:30;;;;;;;21.80;16.77;;;1.70;1.00;;;;;;5040123;28;20249;-64
2022/12/05 13:15:19;;;;;;;18.90;15.17;;;1.60;1.00;;;;;;5034163;28;20230;-64
2022/12/05 13:17:48;;;;;;;18.17;14.10;;;1.50;1.00;;;;;;5058195;28;20291;-63
2022/12/05 13:20:21;;;;;;;21.83;17.00;;;1.60;1.00;;;;;;5053744;28;20199;-63
2022/12/05 13:22:52;;;;;;;24.50;19.70;;;1.60;1.00;;;;;;5042062;28;20195;-63
2022/12/05 13:25:33;;;;;;;25.43;18.87;;;1.60;1.00;;;;;;5049653;28;20191;-65
2022/12/05 13:28:03;;;;;;;22.87;18.53;;;1.70;1.00;;;;;;5054442;28;20223;-63